Time;durP1;ratioP1;P1;durP2;ratioP2;P2;SDS_P1;SDS_P2;PMS_P1;PMS_P2;Temp;Humidity;BMP_temperature;BMP_pressure;BME280_temperature;BME280_humidity;BME280_pressure;Samples;Min_cycle;Max_cycle;Signal;HPM_P1;HPM_P2
2023/07/24 00:01:40;;;;;;;3.60;2.80;;;;;;;20.15;51.77;98791.17;435607;1257;138993;-70
2023/07/24 00:11:45;;;;;;;4.20;3.00;;;;;;;20.07;52.50;98794.09;435678;1257;139310;-68
2023/07/24 00:21:51;;;;;;;4.80;3.00;;;;;;;19.98;52.52;98789.20;435596;1254;139852;-70
2023/07/24 00:31:57;;;;;;;7.20;6.40;;;;;;;19.90;52.49;98776.66;435386;1257;138341;-69
2023/07/24 00:42:04;;;;;;;5.40;3.50;;;;;;;19.82;53.58;98773.27;435568;1257;139146;-69
2023/07/24 00:52:11;;;;;;;4.30;3.30;;;;;;;19.73;54.73;98767.08;435572;1254;139990;-70
2023/07/24 01:02:17;;;;;;;5.90;2.40;;;;;;;19.63;54.61;98756.87;435443;1254;139007;-69
2023/07/24 01:12:37;;;;;;;4.30;2.80;;;;;;;19.58;53.99;98753.30;435521;1254;138967;-69
2023/07/24 01:22:58;;;;;;;4.20;2.60;;;;;;;19.53;54.42;98749.09;435527;1257;139074;-69
2023/07/24 01:33:04;;;;;;;3.90;3.10;;;;;;;19.41;55.30;98755.63;435371;1254;138709;-69
2023/07/24 01:43:10;;;;;;;6.10;3.10;;;;;;;19.15;55.46;98752.89;434965;1257;139425;-69
2023/07/24 01:53:16;;;;;;;2.90;2.70;;;;;;;18.85;55.04;98748.73;435927;1257;138290;-71
2023/07/24 02:03:22;;;;;;;4.70;2.90;;;;;;;18.75;55.77;98735.52;435727;1254;139161;-70
2023/07/24 02:13:28;;;;;;;5.70;2.40;;;;;;;18.57;56.45;98727.83;435855;1254;139759;-70
2023/07/24 02:23:34;;;;;;;5.40;3.10;;;;;;;18.37;56.74;98721.39;435748;1257;138649;-71
2023/07/24 02:33:40;;;;;;;5.10;2.90;;;;;;;18.14;57.18;98730.14;435735;1256;139672;-71
2023/07/24 02:43:46;;;;;;;4.40;3.00;;;;;;;18.09;57.21;98736.30;436051;1256;140262;-70
2023/07/24 02:53:51;;;;;;;4.30;2.80;;;;;;;18.03;58.00;98739.11;435926;1256;138926;-70
2023/07/24 03:03:57;;;;;;;4.90;3.70;;;;;;;17.81;59.00;98731.70;435657;1253;139537;-70
2023/07/24 03:14:03;;;;;;;3.70;3.30;;;;;;;17.67;59.11;98734.55;435205;1254;140792;-69
2023/07/24 03:24:09;;;;;;;4.60;3.60;;;;;;;17.67;59.64;98729.13;435348;1253;140464;-69
2023/07/24 03:34:14;;;;;;;6.30;3.80;;;;;;;17.74;60.01;98731.19;435284;1256;139053;-70
2023/07/24 03:44:20;;;;;;;8.70;4.00;;;;;;;17.89;60.37;98735.40;435260;1253;140703;-70
2023/07/24 03:54:26;;;;;;;6.30;4.40;;;;;;;17.95;60.95;98728.05;435340;1255;140375;-70
2023/07/24 04:04:32;;;;;;;4.70;4.00;;;;;;;18.02;60.92;98724.43;435104;1254;139299;-69
2023/07/24 04:14:37;;;;;;;13.30;4.20;;;;;;;18.21;60.95;98726.30;435141;1254;139650;-70
2023/07/24 04:24:43;;;;;;;6.80;3.40;;;;;;;18.85;60.57;98729.72;435365;1254;140663;-70
2023/07/24 04:34:49;;;;;;;6.90;3.80;;;;;;;20.94;58.60;98731.60;435364;1254;139342;-69
2023/07/24 04:44:55;;;;;;;4.10;3.10;;;;;;;21.62;55.34;98731.40;435038;1254;139053;-70
2023/07/24 04:55:01;;;;;;;4.20;3.80;;;;;;;20.89;55.19;98743.95;435446;1253;139685;-69
2023/07/24 05:05:08;;;;;;;5.70;3.20;;;;;;;20.47;55.47;98745.88;435356;1256;138285;-68
2023/07/24 05:15:16;;;;;;;5.60;3.00;;;;;;;20.49;55.89;98745.19;437341;1253;139185;-71
2023/07/24 05:25:22;;;;;;;4.70;3.10;;;;;;;21.64;54.94;98731.55;435988;1253;139413;-70
2023/07/24 05:35:28;;;;;;;4.70;3.20;;;;;;;22.59;52.69;98746.63;435573;1256;138480;-70
2023/07/24 05:45:34;;;;;;;4.90;3.30;;;;;;;26.67;48.76;98736.05;435520;1254;138330;-70
2023/07/24 05:55:40;;;;;;;2.80;2.40;;;;;;;30.04;43.01;98731.59;435551;1252;139843;-71
2023/07/24 06:05:45;;;;;;;6.50;2.90;;;;;;;30.61;39.79;98732.52;435473;1256;138354;-72
2023/07/24 06:15:52;;;;;;;2.80;2.60;;;;;;;32.38;38.22;98729.16;435338;1253;138601;-71
2023/07/24 06:25:58;;;;;;;4.00;2.50;;;;;;;37.64;32.93;98716.15;436279;1253;138742;-71
2023/07/24 06:36:09;;;;;;;2.60;1.90;;;;;;;38.42;29.15;98711.39;435838;1253;138477;-67
2023/07/24 06:46:15;;;;;;;6.70;2.10;;;;;;;34.49;30.08;98704.79;435598;1253;139419;-65
2023/07/24 06:56:19;;;;;;;;;;;;;;;33.57;31.23;98686.75;436181;1253;139196;-72
2023/07/24 07:06:25;;;;;;;6.10;2.10;;;;;;;37.11;28.74;98675.43;438112;1256;125221;-67
2023/07/24 07:16:33;;;;;;;4.20;1.80;;;;;;;38.38;26.75;98663.58;436267;1253;139654;-70
2023/07/24 07:26:39;;;;;;;2.40;1.70;;;;;;;40.86;25.22;98653.52;436456;1253;138527;-69
2023/07/24 07:36:45;;;;;;;1.60;1.50;;;;;;;44.21;22.66;98646.05;436314;1254;223219;-68
2023/07/24 07:46:50;;;;;;;1.40;1.30;;;;;;;42.42;21.87;98643.35;436060;1256;138280;-71
2023/07/24 07:56:57;;;;;;;4.00;1.90;;;;;;;38.14;23.77;98634.32;437682;1253;138818;-75
2023/07/24 08:07:04;;;;;;;3.50;1.90;;;;;;;35.48;25.47;98624.39;437133;1253;138371;-65
2023/07/24 08:17:09;;;;;;;3.20;2.00;;;;;;;33.45;27.34;98622.29;436046;1254;139326;-71
2023/07/24 08:27:15;;;;;;;4.00;2.10;;;;;;;31.83;29.16;98617.27;438192;1256;138866;-68
2023/07/24 08:37:21;;;;;;;7.50;2.20;;;;;;;30.52;30.72;98613.32;435705;1254;138608;-68
2023/07/24 08:47:28;;;;;;;4.20;2.30;;;;;;;30.30;31.37;98614.75;436082;1254;140944;-73
2023/07/24 08:57:32;;;;;;;;;;;;;;;30.09;31.64;98605.35;437656;1254;139035;-68
2023/07/24 09:07:38;;;;;;;3.50;2.60;;;;;;;30.27;31.89;98577.80;438549;1253;124927;-69
2023/07/24 09:17:52;;;;;;;3.60;3.30;;;;;;;30.77;31.74;98563.92;438048;1253;139383;-71
2023/07/24 09:27:59;;;;;;;2.40;2.10;;;;;;;31.46;30.69;98559.81;435443;1253;140132;-70
2023/07/24 09:38:07;;;;;;;2.60;2.40;;;;;;;32.24;29.58;98550.52;437895;1256;138434;-71
2023/07/24 09:48:15;;;;;;;5.10;2.40;;;;;;;32.67;28.64;98540.56;438150;1253;138580;-71
2023/07/24 09:58:41;;;;;;;4.60;2.50;;;;;;;32.09;28.59;98536.48;435866;1253;139403;-71
2023/07/24 10:08:49;;;;;;;6.30;3.60;;;;;;;31.59;29.40;98529.00;437860;1256;138387;-71
2023/07/24 10:18:55;;;;;;;2.80;2.10;;;;;;;31.39;29.67;98518.35;438112;1253;138882;-71
2023/07/24 10:29:01;;;;;;;3.50;3.20;;;;;;;31.15;29.90;98494.06;437011;1253;138252;-66
2023/07/24 10:39:14;;;;;;;;;;;;;;;31.30;29.90;98480.92;436417;1256;138293;-66
2023/07/24 10:49:24;;;;;;;2.80;2.60;;;;;;;31.36;29.64;98475.93;435510;1253;124949;-70
2023/07/24 10:59:41;;;;;;;3.40;2.40;;;;;;;31.23;29.85;98471.02;435736;1253;139843;-67
2023/07/24 11:09:47;;;;;;;4.80;3.10;;;;;;;30.91;30.31;98479.63;435498;1256;139464;-66
2023/07/24 11:19:54;;;;;;;2.40;2.20;;;;;;;31.04;30.66;98475.11;436023;1256;140665;-68
2023/07/24 11:30:00;;;;;;;6.50;2.60;;;;;;;31.64;30.56;98449.96;436491;1256;138374;-67
2023/07/24 11:40:09;;;;;;;2.80;2.50;;;;;;;32.18;30.08;98441.88;435549;1253;138983;-70
2023/07/24 11:50:18;;;;;;;3.20;2.80;;;;;;;32.55;29.84;98427.75;436012;1254;139075;-65
2023/07/24 12:00:24;;;;;;;13.00;3.10;;;;;;;32.15;29.54;98432.05;436208;1254;138706;-65
2023/07/24 12:10:31;;;;;;;3.40;2.70;;;;;;;31.97;29.75;98416.27;436368;1256;139240;-80
2023/07/24 12:20:37;;;;;;;4.30;3.00;;;;;;;32.00;29.88;98399.23;437945;1256;139618;-70
2023/07/24 12:30:43;;;;;;;7.00;3.00;;;;;;;31.89;30.03;98389.23;436479;1254;138634;-75
2023/07/24 12:40:49;;;;;;;3.50;2.90;;;;;;;31.99;29.71;98386.46;438330;1253;138316;-71
2023/07/24 12:50:57;;;;;;;3.40;2.80;;;;;;;31.81;29.74;98372.97;438082;1254;138517;-77
2023/07/24 13:01:03;;;;;;;4.70;3.60;;;;;;;31.90;29.42;98363.39;438134;1253;140123;-77
2023/07/24 13:11:09;;;;;;;5.80;3.70;;;;;;;32.04;29.02;98345.45;438124;1254;139592;-76
2023/07/24 13:21:15;;;;;;;5.10;3.60;;;;;;;32.15;28.87;98330.52;438376;1254;139030;-75
2023/07/24 13:31:20;;;;;;;;;;;;;;;32.16;28.56;98320.48;438045;1254;138566;-72
2023/07/24 13:41:26;;;;;;;8.30;4.40;;;;;;;31.66;28.16;98303.80;438475;1253;125121;-70
2023/07/24 13:51:32;;;;;;;5.70;4.10;;;;;;;31.33;28.34;98301.84;438233;1256;138682;-64
2023/07/24 14:01:38;;;;;;;6.50;3.70;;;;;;;31.24;28.60;98293.77;435308;1256;138287;-64
2023/07/24 14:11:44;;;;;;;6.30;4.90;;;;;;;31.15;28.79;98283.81;435434;1254;138967;-65
2023/07/24 14:21:50;;;;;;;8.70;4.50;;;;;;;30.84;29.12;98270.14;435291;1256;138991;-63
2023/07/24 14:31:55;;;;;;;4.20;3.80;;;;;;;30.82;29.60;98255.50;435371;1256;138954;-64
2023/07/24 14:42:02;;;;;;;4.80;3.80;;;;;;;30.79;29.78;98239.89;435602;1254;139029;-63
2023/07/24 14:52:09;;;;;;;5.50;4.60;;;;;;;30.76;29.96;98230.77;435425;1256;139573;-64
2023/07/24 15:02:13;;;;;;;;;;;;;;;30.47;30.20;98222.12;435752;1254;138405;-67
2023/07/24 15:12:19;;;;;;;8.20;5.70;;;;;;;30.05;30.59;98213.45;435712;1256;125924;-68
2023/07/24 15:22:25;;;;;;;5.70;4.70;;;;;;;29.79;30.88;98200.80;435566;1254;140314;-73
2023/07/24 15:32:30;;;;;;;9.90;5.40;;;;;;;29.71;31.16;98189.83;436429;1256;140289;-66
2023/07/24 15:42:36;;;;;;;5.70;5.10;;;;;;;29.88;31.41;98172.48;436065;1256;138981;-67
2023/07/24 15:52:42;;;;;;;10.90;5.80;;;;;;;30.05;31.73;98153.81;436159;1254;138674;-65
2023/07/24 16:02:48;;;;;;;6.60;6.00;;;;;;;30.07;31.76;98137.81;436057;1256;139371;-65
2023/07/24 16:12:54;;;;;;;6.30;4.80;;;;;;;29.90;31.86;98119.96;435785;1256;139784;-67
2023/07/24 16:23:00;;;;;;;6.60;5.20;;;;;;;29.98;32.05;98110.27;436186;1256;139352;-68
2023/07/24 16:33:06;;;;;;;9.50;5.20;;;;;;;29.81;32.22;98110.42;436209;1256;138701;-66
2023/07/24 16:43:12;;;;;;;6.70;5.90;;;;;;;29.43;32.65;98103.23;436333;1254;139125;-74
2023/07/24 16:53:19;;;;;;;6.00;5.10;;;;;;;29.11;33.25;98094.98;437691;1257;138677;-64
2023/07/24 17:03:25;;;;;;;6.30;5.00;;;;;;;28.87;33.88;98081.63;436268;1254;138919;-64
2023/07/24 17:13:31;;;;;;;7.50;5.60;;;;;;;28.60;34.39;98073.71;436439;1256;141065;-64
2023/07/24 17:23:38;;;;;;;9.00;5.80;;;;;;;28.68;34.89;98069.38;435868;1258;139194;-65
2023/07/24 17:33:43;;;;;;;7.30;6.20;;;;;;;27.73;36.88;98087.80;435653;1255;138887;-64
2023/07/24 17:43:49;;;;;;;7.10;6.40;;;;;;;26.94;38.74;98082.19;435613;1257;139076;-65
2023/07/24 17:53:56;;;;;;;7.60;5.70;;;;;;;26.26;40.86;98086.84;435777;1254;140564;-64
2023/07/24 18:04:02;;;;;;;7.30;6.10;;;;;;;25.61;42.73;98086.73;436395;1257;139215;-64
2023/07/24 18:14:08;;;;;;;8.20;5.80;;;;;;;25.01;44.29;98086.95;435826;1257;139283;-64
2023/07/24 18:24:16;;;;;;;6.20;5.40;;;;;;;24.34;45.80;98081.95;435729;1257;138961;-64
2023/07/24 18:34:22;;;;;;;8.20;4.70;;;;;;;23.74;46.86;98080.09;436244;1254;138767;-66
2023/07/24 18:44:28;;;;;;;7.40;5.10;;;;;;;23.28;48.17;98077.14;436284;1254;139567;-62
2023/07/24 18:54:34;;;;;;;8.40;5.30;;;;;;;23.03;49.09;98074.71;435671;1257;138498;-61
2023/07/24 19:04:40;;;;;;;6.10;4.30;;;;;;;22.93;49.58;98061.01;436110;1254;138547;-62
2023/07/24 19:14:46;;;;;;;5.40;3.80;;;;;;;22.85;50.02;98055.16;435711;1252;138475;-61
2023/07/24 19:24:53;;;;;;;6.10;5.00;;;;;;;22.74;50.57;98055.65;435729;1257;139533;-60
2023/07/24 19:34:59;;;;;;;;;;;;;;;22.63;51.10;98068.89;435335;1254;139216;-60
2023/07/24 19:45:07;;;;;;;4.40;4.00;;;;;;;22.53;51.52;98075.22;435033;1257;126264;-60
2023/07/24 19:55:13;;;;;;;5.10;3.50;;;;;;;22.43;51.98;98060.35;449576;1254;139012;-61
2023/07/24 20:05:20;;;;;;;6.10;3.70;;;;;;;22.36;52.60;98046.73;434368;1257;138301;-61
2023/07/24 20:15:26;;;;;;;4.60;4.00;;;;;;;22.28;53.23;98031.00;434845;1254;140102;-61
2023/07/24 20:25:31;;;;;;;5.50;4.20;;;;;;;22.16;53.58;98013.95;435207;1254;138547;-63
2023/07/24 20:35:38;;;;;;;7.70;4.20;;;;;;;22.07;54.32;98014.23;435703;1254;138283;-72
2023/07/24 20:45:44;;;;;;;4.80;4.00;;;;;;;22.06;54.77;98006.84;435663;1256;139227;-73
2023/07/24 20:55:50;;;;;;;6.70;5.80;;;;;;;21.92;55.22;98001.75;435175;1254;138466;-74
2023/07/24 21:05:56;;;;;;;6.70;5.80;;;;;;;21.81;55.78;98001.05;435395;1254;138270;-66
2023/07/24 21:16:02;;;;;;;7.70;5.10;;;;;;;21.71;56.46;98001.08;435234;1254;139095;-65
2023/07/24 21:26:08;;;;;;;5.60;4.70;;;;;;;21.57;57.23;98010.33;434946;1254;140262;-65
2023/07/24 21:36:14;;;;;;;6.80;5.50;;;;;;;21.47;58.09;98009.40;435415;1254;139746;-65
2023/07/24 21:46:19;;;;;;;8.20;6.40;;;;;;;21.36;58.90;97996.36;435505;1254;139435;-65
2023/07/24 21:56:25;;;;;;;6.60;5.90;;;;;;;21.32;59.57;97994.73;435341;1256;139897;-65
2023/07/24 22:06:31;;;;;;;8.90;6.20;;;;;;;21.27;60.42;97991.61;436389;1253;138896;-65
2023/07/24 22:16:37;;;;;;;6.90;5.60;;;;;;;21.22;61.11;97985.83;435394;1253;140070;-65
2023/07/24 22:26:43;;;;;;;7.50;5.70;;;;;;;21.18;61.83;97987.05;435786;1255;140263;-65
2023/07/24 22:36:49;;;;;;;6.40;5.10;;;;;;;21.13;62.42;97983.66;435616;1253;140437;-64
2023/07/24 22:46:55;;;;;;;7.00;5.40;;;;;;;21.13;62.80;97971.59;435467;1253;141217;-65
2023/07/24 22:57:01;;;;;;;7.70;6.30;;;;;;;21.07;63.23;97974.66;435724;1254;141197;-65
2023/07/24 23:07:07;;;;;;;10.30;6.70;;;;;;;21.02;63.63;97977.63;435387;1253;139339;-64
2023/07/24 23:17:13;;;;;;;7.90;6.30;;;;;;;20.87;64.18;97984.97;435954;1253;139346;-65
2023/07/24 23:27:19;;;;;;;8.20;6.50;;;;;;;20.62;64.96;97982.20;436057;1255;140769;-66
2023/07/24 23:37:25;;;;;;;7.90;6.30;;;;;;;20.37;65.83;97992.49;435469;1254;139345;-66
2023/07/24 23:47:31;;;;;;;9.30;6.30;;;;;;;20.13;66.70;97991.77;435338;1256;140894;-64
2023/07/24 23:57:37;;;;;;;10.00;7.00;;;;;;;19.92;67.65;97983.48;435492;1253;140528;-65
